KSTS/STS METAR and TAF weather

Enter ICAO airport designator
Station Type Date Time Source
KSTS METAR 2022/12/05 14:53 UTC NOAA

KSTS 051453Z 13006KT 10SM CLR 09/08 A3000 RMK AO2 SLP152 60000 T00940078 53002


Station Type Date Time Source
KSTS Decoded METAR 2022/12/05 14:53 UTC NOAA

SANTA ROSA SONOMA COUNTY, CA, United States (KSTS) 38-30N 122-49W 39M
Dec 05, 2022 - 09:53 AM EST / 2022.12.05 1453 UTC
Wind: from the SE (130 degrees) at 7 MPH (6 KT):0
Visibility: 10 mile(s):0
Sky conditions: clear
Temperature: 48.9 F (9.4 C)
Dew Point: 46.0 F (7.8 C)
Relative Humidity: 89%
Pressure (altimeter): 30 in. Hg (1015 hPa)
Pressure tendency: 0.01 inches (0.2 hPa) higher than three hours ago
ob: KSTS 051453Z 13006KT 10SM CLR 09/08 A3000 RMK AO2 SLP152 60000 T00940078 53002
cycle: 15

Station Type Date Time Source
KSTS TAF 2022/12/05 14:30 UTC NOAA

TAF
AMD KSTS 051427Z 0514/0612 14005KT P6SM VCSH SCT030 BKN050
FM051500 17006KT 6SM BR VCSH BKN050
FM060800 VRB02KT 6SM BR VCSH BKN020

Example: see airport list